sensor_id;sensor_type;location;lat;lon;timestamp;temperature;humidity
71304;DHT22;59091;47.446;19.148;2022-08-11T00:00:12;22.75;41.50
71304;DHT22;59091;47.446;19.148;2022-08-11T00:02:41;22.78;41.90
71304;DHT22;59091;47.446;19.148;2022-08-11T00:05:08;22.75;41.64
71304;DHT22;59091;47.446;19.148;2022-08-11T00:07:49;22.68;41.68
71304;DHT22;59091;47.446;19.148;2022-08-11T00:10:18;22.74;41.92
71304;DHT22;59091;47.446;19.148;2022-08-11T00:12:59;22.62;42.03
71304;DHT22;59091;47.446;19.148;2022-08-11T00:15:27;22.71;42.51
71304;DHT22;59091;47.446;19.148;2022-08-11T00:17:58;22.58;42.28
71304;DHT22;59091;47.446;19.148;2022-08-11T00:20:32;22.57;42.29
71304;DHT22;59091;47.446;19.148;2022-08-11T00:23:08;22.60;42.99
71304;DHT22;59091;47.446;19.148;2022-08-11T00:25:42;22.44;42.72
71304;DHT22;59091;47.446;19.148;2022-08-11T00:28:32;22.29;42.92
71304;DHT22;59091;47.446;19.148;2022-08-11T00:31:02;22.33;43.01
71304;DHT22;59091;47.446;19.148;2022-08-11T00:33:42;22.20;43.24
71304;DHT22;59091;47.446;19.148;2022-08-11T00:36:10;22.18;43.33
71304;DHT22;59091;47.446;19.148;2022-08-11T00:38:39;22.11;43.60
71304;DHT22;59091;47.446;19.148;2022-08-11T00:44:20;22.14;43.69
71304;DHT22;59091;47.446;19.148;2022-08-11T01:06:59;22.09;44.44
71304;DHT22;59091;47.446;19.148;2022-08-11T01:10:20;22.14;44.53
71304;DHT22;59091;47.446;19.148;2022-08-11T01:32:36;22.06;44.87
71304;DHT22;59091;47.446;19.148;2022-08-11T01:41:26;22.17;44.87
71304;DHT22;59091;47.446;19.148;2022-08-11T01:56:20;22.29;45.07
71304;DHT22;59091;47.446;19.148;2022-08-11T01:58:59;22.31;45.26
71304;DHT22;59091;47.446;19.148;2022-08-11T02:06:54;22.30;45.11
71304;DHT22;59091;47.446;19.148;2022-08-11T02:12:43;22.18;45.43
71304;DHT22;59091;47.446;19.148;2022-08-11T02:20:44;22.09;45.53
71304;DHT22;59091;47.446;19.148;2022-08-11T02:23:58;21.86;45.70
71304;DHT22;59091;47.446;19.148;2022-08-11T02:26:40;21.70;45.94
71304;DHT22;59091;47.446;19.148;2022-08-11T02:29:14;21.42;46.62
71304;DHT22;59091;47.446;19.148;2022-08-11T02:37:50;21.46;46.93
71304;DHT22;59091;47.446;19.148;2022-08-11T02:40:37;21.49;46.58
71304;DHT22;59091;47.446;19.148;2022-08-11T02:43:21;21.62;46.75
71304;DHT22;59091;47.446;19.148;2022-08-11T02:46:28;21.65;46.90
71304;DHT22;59091;47.446;19.148;2022-08-11T02:48:59;21.38;46.82
71304;DHT22;59091;47.446;19.148;2022-08-11T02:52:08;21.25;47.04
71304;DHT22;59091;47.446;19.148;2022-08-11T02:54:58;21.17;47.29
71304;DHT22;59091;47.446;19.148;2022-08-11T02:57:36;21.14;47.41
71304;DHT22;59091;47.446;19.148;2022-08-11T03:00:11;21.15;47.51
71304;DHT22;59091;47.446;19.148;2022-08-11T03:02:49;21.20;47.50
71304;DHT22;59091;47.446;19.148;2022-08-11T03:05:42;21.22;47.44
71304;DHT22;59091;47.446;19.148;2022-08-11T03:08:28;21.07;47.65
71304;DHT22;59091;47.446;19.148;2022-08-11T03:14:09;21.04;47.94
71304;DHT22;59091;47.446;19.148;2022-08-11T03:22:39;21.04;48.16
71304;DHT22;59091;47.446;19.148;2022-08-11T03:25:20;20.88;48.19
71304;DHT22;59091;47.446;19.148;2022-08-11T03:31:07;20.80;48.62
71304;DHT22;59091;47.446;19.148;2022-08-11T03:33:40;20.84;48.58
71304;DHT22;59091;47.446;19.148;2022-08-11T03:50:23;20.77;48.79
71304;DHT22;59091;47.446;19.148;2022-08-11T03:59:28;20.60;49.02
71304;DHT22;59091;47.446;19.148;2022-08-11T04:02:07;20.80;48.76
71304;DHT22;59091;47.446;19.148;2022-08-11T04:21:46;21.20;48.39
71304;DHT22;59091;47.446;19.148;2022-08-11T04:35:37;21.14;48.46
71304;DHT22;59091;47.446;19.148;2022-08-11T04:53:02;21.70;47.54
71304;DHT22;59091;47.446;19.148;2022-08-11T05:12:19;21.58;46.72
71304;DHT22;59091;47.446;19.148;2022-08-11T05:14:52;21.88;46.60
71304;DHT22;59091;47.446;19.148;2022-08-11T05:17:55;21.94;45.87
71304;DHT22;59091;47.446;19.148;2022-08-11T05:20:49;21.94;45.96
71304;DHT22;59091;47.446;19.148;2022-08-11T05:23:37;21.88;45.66
71304;DHT22;59091;47.446;19.148;2022-08-11T05:26:22;22.14;45.82
71304;DHT22;59091;47.446;19.148;2022-08-11T05:29:25;22.27;45.44
71304;DHT22;59091;47.446;19.148;2022-08-11T05:32:13;22.30;44.96
71304;DHT22;59091;47.446;19.148;2022-08-11T05:35:02;22.27;44.73
71304;DHT22;59091;47.446;19.148;2022-08-11T05:40:00;22.43;44.72
71304;DHT22;59091;47.446;19.148;2022-08-11T05:42:55;22.75;44.13
71304;DHT22;59091;47.446;19.148;2022-08-11T05:45:40;22.81;44.10
71304;DHT22;59091;47.446;19.148;2022-08-11T05:48:31;22.82;43.29
71304;DHT22;59091;47.446;19.148;2022-08-11T05:51:16;22.87;43.68
71304;DHT22;59091;47.446;19.148;2022-08-11T05:54:02;23.13;43.46
71304;DHT22;59091;47.446;19.148;2022-08-11T05:56:51;23.11;43.08
71304;DHT22;59091;47.446;19.148;2022-08-11T05:59:17;23.20;43.20
71304;DHT22;59091;47.446;19.148;2022-08-11T06:01:43;23.34;42.93
71304;DHT22;59091;47.446;19.148;2022-08-11T06:04:19;23.49;42.22
71304;DHT22;59091;47.446;19.148;2022-08-11T06:09:36;23.62;42.19
71304;DHT22;59091;47.446;19.148;2022-08-11T06:12:03;23.57;42.32
71304;DHT22;59091;47.446;19.148;2022-08-11T06:14:29;23.62;41.79
71304;DHT22;59091;47.446;19.148;2022-08-11T06:16:59;23.75;41.97
71304;DHT22;59091;47.446;19.148;2022-08-11T06:19:34;23.70;41.58
71304;DHT22;59091;47.446;19.148;2022-08-11T06:22:01;23.80;41.32
71304;DHT22;59091;47.446;19.148;2022-08-11T06:24:27;23.98;40.79
71304;DHT22;59091;47.446;19.148;2022-08-11T06:26:54;24.10;40.79
71304;DHT22;59091;47.446;19.148;2022-08-11T06:29:21;24.13;40.69
71304;DHT22;59091;47.446;19.148;2022-08-11T06:31:53;24.35;40.74
71304;DHT22;59091;47.446;19.148;2022-08-11T06:37:18;24.39;40.02
71304;DHT22;59091;47.446;19.148;2022-08-11T06:40:07;24.56;39.74
71304;DHT22;59091;47.446;19.148;2022-08-11T06:42:45;24.71;39.78
71304;DHT22;59091;47.446;19.148;2022-08-11T06:45:52;24.75;39.43
71304;DHT22;59091;47.446;19.148;2022-08-11T06:48:23;25.14;38.99
71304;DHT22;59091;47.446;19.148;2022-08-11T06:50:56;25.23;38.66
71304;DHT22;59091;47.446;19.148;2022-08-11T06:53:42;25.41;38.56
71304;DHT22;59091;47.446;19.148;2022-08-11T06:56:09;25.60;38.41
71304;DHT22;59091;47.446;19.148;2022-08-11T06:58:55;25.82;38.62
71304;DHT22;59091;47.446;19.148;2022-08-11T07:04:54;26.04;36.79
71304;DHT22;59091;47.446;19.148;2022-08-11T07:13:42;26.47;35.50
71304;DHT22;59091;47.446;19.148;2022-08-11T07:16:28;27.00;34.86
71304;DHT22;59091;47.446;19.148;2022-08-11T07:19:00;27.15;33.92
71304;DHT22;59091;47.446;19.148;2022-08-11T07:21:45;27.17;34.28
71304;DHT22;59091;47.446;19.148;2022-08-11T07:24:38;27.49;33.77
71304;DHT22;59091;47.446;19.148;2022-08-11T07:27:24;27.49;33.53
71304;DHT22;59091;47.446;19.148;2022-08-11T07:30:11;27.86;33.26
71304;DHT22;59091;47.446;19.148;2022-08-11T07:32:52;27.75;32.64
71304;DHT22;59091;47.446;19.148;2022-08-11T07:35:35;27.75;32.72
71304;DHT22;59091;47.446;19.148;2022-08-11T07:38:05;28.00;32.35
71304;DHT22;59091;47.446;19.148;2022-08-11T07:40:32;28.16;32.25
71304;DHT22;59091;47.446;19.148;2022-08-11T07:42:59;28.41;32.06
71304;DHT22;59091;47.446;19.148;2022-08-11T07:45:26;28.63;31.41
71304;DHT22;59091;47.446;19.148;2022-08-11T07:48:11;28.61;31.45
71304;DHT22;59091;47.446;19.148;2022-08-11T07:50:57;28.61;30.86
71304;DHT22;59091;47.446;19.148;2022-08-11T07:53:44;27.81;31.98
71304;DHT22;59091;47.446;19.148;2022-08-11T07:56:10;28.27;32.21
71304;DHT22;59091;47.446;19.148;2022-08-11T07:58:41;28.70;31.28
71304;DHT22;59091;47.446;19.148;2022-08-11T08:01:26;28.68;30.93
71304;DHT22;59091;47.446;19.148;2022-08-11T08:04:12;29.15;30.41
71304;DHT22;59091;47.446;19.148;2022-08-11T08:06:57;29.14;30.18
71304;DHT22;59091;47.446;19.148;2022-08-11T08:09:42;29.33;30.35
71304;DHT22;59091;47.446;19.148;2022-08-11T08:12:28;29.91;29.42
71304;DHT22;59091;47.446;19.148;2022-08-11T08:15:13;30.07;28.68
71304;DHT22;59091;47.446;19.148;2022-08-11T08:18:00;29.83;28.90
71304;DHT22;59091;47.446;19.148;2022-08-11T08:20:52;30.41;28.82
71304;DHT22;59091;47.446;19.148;2022-08-11T08:23:21;30.54;28.14
71304;DHT22;59091;47.446;19.148;2022-08-11T08:25:58;30.90;27.43
71304;DHT22;59091;47.446;19.148;2022-08-11T08:28:26;30.59;27.69
71304;DHT22;59091;47.446;19.148;2022-08-11T08:30:52;30.41;27.81
71304;DHT22;59091;47.446;19.148;2022-08-11T08:33:28;30.04;27.66
71304;DHT22;59091;47.446;19.148;2022-08-11T08:36:00;29.93;27.55
71304;DHT22;59091;47.446;19.148;2022-08-11T08:41:05;30.03;26.80
71304;DHT22;59091;47.446;19.148;2022-08-11T08:43:32;31.15;26.76
71304;DHT22;59091;47.446;19.148;2022-08-11T08:45:58;31.39;25.83
71304;DHT22;59091;47.446;19.148;2022-08-11T08:48:25;31.98;25.52
71304;DHT22;59091;47.446;19.148;2022-08-11T08:50:56;31.33;25.35
71304;DHT22;59091;47.446;19.148;2022-08-11T08:53:44;31.60;25.31
71304;DHT22;59091;47.446;19.148;2022-08-11T08:56:11;31.06;25.47
71304;DHT22;59091;47.446;19.148;2022-08-11T08:58:40;31.04;25.52
71304;DHT22;59091;47.446;19.148;2022-08-11T09:01:08;31.40;25.17
71304;DHT22;59091;47.446;19.148;2022-08-11T09:03:38;31.12;25.02
71304;DHT22;59091;47.446;19.148;2022-08-11T09:06:03;30.20;26.05
71304;DHT22;59091;47.446;19.148;2022-08-11T09:08:30;30.11;26.08
71304;DHT22;59091;47.446;19.148;2022-08-11T09:10:57;30.35;26.26
71304;DHT22;59091;47.446;19.148;2022-08-11T09:13:44;30.34;26.57
71304;DHT22;59091;47.446;19.148;2022-08-11T09:16:10;30.42;26.12
71304;DHT22;59091;47.446;19.148;2022-08-11T09:18:37;31.00;25.19
71304;DHT22;59091;47.446;19.148;2022-08-11T09:21:03;31.25;25.07
71304;DHT22;59091;47.446;19.148;2022-08-11T09:23:29;30.49;26.06
71304;DHT22;59091;47.446;19.148;2022-08-11T09:26:15;30.06;26.52
71304;DHT22;59091;47.446;19.148;2022-08-11T09:29:00;28.64;26.53
71304;DHT22;59091;47.446;19.148;2022-08-11T09:31:30;28.50;27.51
71304;DHT22;59091;47.446;19.148;2022-08-11T09:33:58;28.14;27.73
71304;DHT22;59091;47.446;19.148;2022-08-11T09:36:24;28.65;27.56
71304;DHT22;59091;47.446;19.148;2022-08-11T09:39:09;29.07;27.16
71304;DHT22;59091;47.446;19.148;2022-08-11T09:41:55;29.11;26.97
71304;DHT22;59091;47.446;19.148;2022-08-11T09:44:21;29.22;26.45
71304;DHT22;59091;47.446;19.148;2022-08-11T09:47:06;29.33;26.63
71304;DHT22;59091;47.446;19.148;2022-08-11T09:49:42;29.79;26.99
71304;DHT22;59091;47.446;19.148;2022-08-11T09:52:09;29.63;26.22
71304;DHT22;59091;47.446;19.148;2022-08-11T09:54:35;29.55;26.85
71304;DHT22;59091;47.446;19.148;2022-08-11T09:57:01;29.50;26.68
71304;DHT22;59091;47.446;19.148;2022-08-11T09:59:46;29.80;26.93
71304;DHT22;59091;47.446;19.148;2022-08-11T10:02:12;29.91;26.36
71304;DHT22;59091;47.446;19.148;2022-08-11T10:04:42;30.00;25.62
71304;DHT22;59091;47.446;19.148;2022-08-11T10:07:10;30.20;25.98
71304;DHT22;59091;47.446;19.148;2022-08-11T10:12:16;30.06;26.40
71304;DHT22;59091;47.446;19.148;2022-08-11T10:14:45;29.72;25.94
71304;DHT22;59091;47.446;19.148;2022-08-11T10:17:32;29.76;26.12
71304;DHT22;59091;47.446;19.148;2022-08-11T10:20:00;29.83;25.42
71304;DHT22;59091;47.446;19.148;2022-08-11T10:22:29;29.74;25.95
71304;DHT22;59091;47.446;19.148;2022-08-11T10:25:14;29.67;25.79
71304;DHT22;59091;47.446;19.148;2022-08-11T10:27:59;29.79;26.51
71304;DHT22;59091;47.446;19.148;2022-08-11T10:30:27;29.59;26.27
71304;DHT22;59091;47.446;19.148;2022-08-11T10:33:12;29.69;25.80
71304;DHT22;59091;47.446;19.148;2022-08-11T10:35:57;29.77;26.05
71304;DHT22;59091;47.446;19.148;2022-08-11T10:38:24;29.89;25.35
71304;DHT22;59091;47.446;19.148;2022-08-11T10:40:51;29.80;25.16
71304;DHT22;59091;47.446;19.148;2022-08-11T10:43:38;29.84;26.52
71304;DHT22;59091;47.446;19.148;2022-08-11T10:46:08;29.62;26.64
71304;DHT22;59091;47.446;19.148;2022-08-11T10:48:55;29.96;27.21
71304;DHT22;59091;47.446;19.148;2022-08-11T10:51:21;30.17;26.60
71304;DHT22;59091;47.446;19.148;2022-08-11T10:54:06;29.94;26.10
71304;DHT22;59091;47.446;19.148;2022-08-11T10:56:51;29.66;25.77
71304;DHT22;59091;47.446;19.148;2022-08-11T10:59:37;29.72;26.24
71304;DHT22;59091;47.446;19.148;2022-08-11T11:02:02;30.00;25.71
71304;DHT22;59091;47.446;19.148;2022-08-11T11:04:37;29.76;25.98
71304;DHT22;59091;47.446;19.148;2022-08-11T11:07:29;30.11;25.80
71304;DHT22;59091;47.446;19.148;2022-08-11T11:09:57;30.31;25.50
71304;DHT22;59091;47.446;19.148;2022-08-11T11:12:41;30.27;25.30
71304;DHT22;59091;47.446;19.148;2022-08-11T11:15:28;30.58;25.20
71304;DHT22;59091;47.446;19.148;2022-08-11T11:18:22;30.78;25.01
71304;DHT22;59091;47.446;19.148;2022-08-11T11:20:57;30.38;24.41
71304;DHT22;59091;47.446;19.148;2022-08-11T11:23:26;30.23;24.60
71304;DHT22;59091;47.446;19.148;2022-08-11T11:26:10;30.11;24.80
71304;DHT22;59091;47.446;19.148;2022-08-11T11:37:10;29.50;23.97
71304;DHT22;59091;47.446;19.148;2022-08-11T11:39:37;29.69;24.17
71304;DHT22;59091;47.446;19.148;2022-08-11T11:42:05;29.91;24.28
71304;DHT22;59091;47.446;19.148;2022-08-11T11:44:32;29.99;23.64
71304;DHT22;59091;47.446;19.148;2022-08-11T11:46:59;29.96;24.13
71304;DHT22;59091;47.446;19.148;2022-08-11T11:49:30;29.87;24.45
71304;DHT22;59091;47.446;19.148;2022-08-11T11:52:01;29.80;24.56
71304;DHT22;59091;47.446;19.148;2022-08-11T11:54:29;29.83;24.69
71304;DHT22;59091;47.446;19.148;2022-08-11T11:56:56;29.91;24.41
71304;DHT22;59091;47.446;19.148;2022-08-11T11:59:43;30.01;24.49
71304;DHT22;59091;47.446;19.148;2022-08-11T12:02:27;30.09;24.13
71304;DHT22;59091;47.446;19.148;2022-08-11T12:04:52;30.21;23.38
71304;DHT22;59091;47.446;19.148;2022-08-11T12:07:18;30.13;23.58
71304;DHT22;59091;47.446;19.148;2022-08-11T12:10:03;29.99;23.56
71304;DHT22;59091;47.446;19.148;2022-08-11T12:12:30;29.55;23.21
71304;DHT22;59091;47.446;19.148;2022-08-11T12:15:14;29.63;23.49
71304;DHT22;59091;47.446;19.148;2022-08-11T12:17:43;29.55;23.91
71304;DHT22;59091;47.446;19.148;2022-08-11T12:20:09;29.76;23.91
71304;DHT22;59091;47.446;19.148;2022-08-11T12:22:34;29.79;24.90
71304;DHT22;59091;47.446;19.148;2022-08-11T12:25:19;30.04;24.17
71304;DHT22;59091;47.446;19.148;2022-08-11T12:28:03;30.37;23.58
71304;DHT22;59091;47.446;19.148;2022-08-11T12:30:29;30.58;23.46
71304;DHT22;59091;47.446;19.148;2022-08-11T12:32:55;30.51;23.23
71304;DHT22;59091;47.446;19.148;2022-08-11T12:35:21;30.69;23.87
71304;DHT22;59091;47.446;19.148;2022-08-11T12:37:48;30.67;23.28
71304;DHT22;59091;47.446;19.148;2022-08-11T12:40:23;30.72;22.83
71304;DHT22;59091;47.446;19.148;2022-08-11T12:43:13;30.85;23.31
71304;DHT22;59091;47.446;19.148;2022-08-11T12:46:00;30.74;23.35
71304;DHT22;59091;47.446;19.148;2022-08-11T12:48:31;30.52;20.55
71304;DHT22;59091;47.446;19.148;2022-08-11T12:51:19;30.28;20.92
71304;DHT22;59091;47.446;19.148;2022-08-11T12:57:14;29.59;23.11
71304;DHT22;59091;47.446;19.148;2022-08-11T13:00:00;29.80;23.52
71304;DHT22;59091;47.446;19.148;2022-08-11T13:02:48;29.62;23.90
71304;DHT22;59091;47.446;19.148;2022-08-11T13:05:33;29.35;24.39
71304;DHT22;59091;47.446;19.148;2022-08-11T13:08:00;29.48;24.43
71304;DHT22;59091;47.446;19.148;2022-08-11T13:10:27;29.99;23.97
71304;DHT22;59091;47.446;19.148;2022-08-11T13:13:12;30.00;24.13
71304;DHT22;59091;47.446;19.148;2022-08-11T13:15:39;30.20;23.65
71304;DHT22;59091;47.446;19.148;2022-08-11T13:18:05;30.25;24.10
71304;DHT22;59091;47.446;19.148;2022-08-11T13:20:34;30.35;24.00
71304;DHT22;59091;47.446;19.148;2022-08-11T13:23:00;30.21;23.87
71304;DHT22;59091;47.446;19.148;2022-08-11T13:25:29;30.13;24.90
71304;DHT22;59091;47.446;19.148;2022-08-11T13:27:57;29.99;24.97
71304;DHT22;59091;47.446;19.148;2022-08-11T13:30:25;29.55;25.64
71304;DHT22;59091;47.446;19.148;2022-08-11T13:33:10;29.48;25.86
71304;DHT22;59091;47.446;19.148;2022-08-11T13:35:36;29.18;26.24
71304;DHT22;59091;47.446;19.148;2022-08-11T13:38:03;29.45;26.29
71304;DHT22;59091;47.446;19.148;2022-08-11T13:40:30;29.58;26.40
71304;DHT22;59091;47.446;19.148;2022-08-11T13:42:56;29.43;26.01
71304;DHT22;59091;47.446;19.148;2022-08-11T13:45:25;29.49;25.96
71304;DHT22;59091;47.446;19.148;2022-08-11T13:47:55;29.69;25.82
71304;DHT22;59091;47.446;19.148;2022-08-11T13:50:23;29.55;26.27
71304;DHT22;59091;47.446;19.148;2022-08-11T13:53:10;29.20;26.10
71304;DHT22;59091;47.446;19.148;2022-08-11T13:55:38;29.45;26.17
71304;DHT22;59091;47.446;19.148;2022-08-11T13:58:05;29.58;25.94
71304;DHT22;59091;47.446;19.148;2022-08-11T14:00:33;29.84;25.98
71304;DHT22;59091;47.446;19.148;2022-08-11T14:03:00;30.17;25.63
71304;DHT22;59091;47.446;19.148;2022-08-11T14:05:48;30.21;24.67
71304;DHT22;59091;47.446;19.148;2022-08-11T14:08:16;30.11;25.36
71304;DHT22;59091;47.446;19.148;2022-08-11T14:10:48;30.16;25.41
71304;DHT22;59091;47.446;19.148;2022-08-11T14:13:39;29.97;26.50
71304;DHT22;59091;47.446;19.148;2022-08-11T14:16:19;29.69;26.61
71304;DHT22;59091;47.446;19.148;2022-08-11T14:18:50;29.63;26.96
71304;DHT22;59091;47.446;19.148;2022-08-11T14:21:16;29.42;27.20
71304;DHT22;59091;47.446;19.148;2022-08-11T14:24:02;29.23;27.35
71304;DHT22;59091;47.446;19.148;2022-08-11T14:26:29;29.11;27.63
71304;DHT22;59091;47.446;19.148;2022-08-11T14:28:59;29.02;27.61
71304;DHT22;59091;47.446;19.148;2022-08-11T14:31:28;29.07;27.93
71304;DHT22;59091;47.446;19.148;2022-08-11T14:33:55;29.28;27.92
71304;DHT22;59091;47.446;19.148;2022-08-11T14:36:23;29.25;28.18
71304;DHT22;59091;47.446;19.148;2022-08-11T14:38:50;29.48;28.29
71304;DHT22;59091;47.446;19.148;2022-08-11T14:41:18;29.63;27.39
71304;DHT22;59091;47.446;19.148;2022-08-11T14:44:03;29.30;27.22
71304;DHT22;59091;47.446;19.148;2022-08-11T14:46:48;29.35;27.44
71304;DHT22;59091;47.446;19.148;2022-08-11T14:49:30;29.59;27.67
71304;DHT22;59091;47.446;19.148;2022-08-11T14:51:59;29.39;27.16
71304;DHT22;59091;47.446;19.148;2022-08-11T14:54:28;29.32;27.05
71304;DHT22;59091;47.446;19.148;2022-08-11T14:57:13;29.50;27.13
71304;DHT22;59091;47.446;19.148;2022-08-11T14:59:40;29.77;25.90
71304;DHT22;59091;47.446;19.148;2022-08-11T15:02:06;29.55;26.62
71304;DHT22;59091;47.446;19.148;2022-08-11T15:04:50;29.60;26.22
71304;DHT22;59091;47.446;19.148;2022-08-11T15:07:17;29.67;26.60
71304;DHT22;59091;47.446;19.148;2022-08-11T15:09:55;29.83;26.01
71304;DHT22;59091;47.446;19.148;2022-08-11T15:12:21;29.90;26.12
71304;DHT22;59091;47.446;19.148;2022-08-11T15:14:48;29.83;26.45
71304;DHT22;59091;47.446;19.148;2022-08-11T15:17:33;29.66;25.92
71304;DHT22;59091;47.446;19.148;2022-08-11T15:20:02;29.55;26.19
71304;DHT22;59091;47.446;19.148;2022-08-11T15:22:47;29.49;26.42
71304;DHT22;59091;47.446;19.148;2022-08-11T15:25:33;29.58;26.57
71304;DHT22;59091;47.446;19.148;2022-08-11T15:27:59;29.39;26.49
71304;DHT22;59091;47.446;19.148;2022-08-11T15:30:46;28.98;27.60
71304;DHT22;59091;47.446;19.148;2022-08-11T15:33:34;28.81;27.55
71304;DHT22;59091;47.446;19.148;2022-08-11T15:36:19;28.70;27.58
71304;DHT22;59091;47.446;19.148;2022-08-11T15:39:27;28.58;29.02
71304;DHT22;59091;47.446;19.148;2022-08-11T15:42:06;28.39;28.08
71304;DHT22;59091;47.446;19.148;2022-08-11T15:44:58;28.41;28.52
71304;DHT22;59091;47.446;19.148;2022-08-11T15:48:00;28.19;28.48
71304;DHT22;59091;47.446;19.148;2022-08-11T15:50:29;28.17;28.61
71304;DHT22;59091;47.446;19.148;2022-08-11T15:53:02;28.05;29.01
71304;DHT22;59091;47.446;19.148;2022-08-11T15:55:30;28.16;28.64
71304;DHT22;59091;47.446;19.148;2022-08-11T15:57:58;27.99;29.48
71304;DHT22;59091;47.446;19.148;2022-08-11T16:00:44;27.86;29.95
71304;DHT22;59091;47.446;19.148;2022-08-11T16:03:32;27.86;29.87
71304;DHT22;59091;47.446;19.148;2022-08-11T16:06:18;27.65;30.94
71304;DHT22;59091;47.446;19.148;2022-08-11T16:08:46;27.55;30.49
71304;DHT22;59091;47.446;19.148;2022-08-11T16:11:12;27.54;30.78
71304;DHT22;59091;47.446;19.148;2022-08-11T16:13:39;27.18;31.15
71304;DHT22;59091;47.446;19.148;2022-08-11T16:16:05;27.33;31.98
71304;DHT22;59091;47.446;19.148;2022-08-11T16:21:11;26.96;32.71
71304;DHT22;59091;47.446;19.148;2022-08-11T16:23:39;27.10;32.34
71304;DHT22;59091;47.446;19.148;2022-08-11T16:26:07;27.14;31.79
71304;DHT22;59091;47.446;19.148;2022-08-11T16:28:34;27.17;31.77
71304;DHT22;59091;47.446;19.148;2022-08-11T16:31:01;27.17;31.66
71304;DHT22;59091;47.446;19.148;2022-08-11T16:33:27;27.21;31.50
71304;DHT22;59091;47.446;19.148;2022-08-11T16:35:54;27.25;32.14
71304;DHT22;59091;47.446;19.148;2022-08-11T16:38:40;27.34;31.93
71304;DHT22;59091;47.446;19.148;2022-08-11T16:41:09;27.35;32.65
71304;DHT22;59091;47.446;19.148;2022-08-11T16:43:41;27.39;32.13
71304;DHT22;59091;47.446;19.148;2022-08-11T16:46:28;27.41;31.68
71304;DHT22;59091;47.446;19.148;2022-08-11T16:49:21;27.38;30.90
71304;DHT22;59091;47.446;19.148;2022-08-11T16:51:49;27.37;30.82
71304;DHT22;59091;47.446;19.148;2022-08-11T16:54:14;27.38;30.69
71304;DHT22;59091;47.446;19.148;2022-08-11T16:56:51;27.34;30.82
71304;DHT22;59091;47.446;19.148;2022-08-11T17:01:54;27.20;31.06
71304;DHT22;59091;47.446;19.148;2022-08-11T17:04:46;27.24;31.59
71304;DHT22;59091;47.446;19.148;2022-08-11T17:07:35;27.10;30.75
71304;DHT22;59091;47.446;19.148;2022-08-11T17:10:34;27.12;31.48
71304;DHT22;59091;47.446;19.148;2022-08-11T17:13:57;27.14;31.33
71304;DHT22;59091;47.446;19.148;2022-08-11T17:16:28;27.15;31.54
71304;DHT22;59091;47.446;19.148;2022-08-11T17:19:00;27.12;31.53
71304;DHT22;59091;47.446;19.148;2022-08-11T17:21:32;26.97;30.89
71304;DHT22;59091;47.446;19.148;2022-08-11T17:24:02;26.96;31.95
71304;DHT22;59091;47.446;19.148;2022-08-11T17:26:35;27.04;31.36
71304;DHT22;59091;47.446;19.148;2022-08-11T17:29:45;26.69;32.45
71304;DHT22;59091;47.446;19.148;2022-08-11T17:32:15;26.29;33.94
71304;DHT22;59091;47.446;19.148;2022-08-11T17:35:07;26.08;34.76
71304;DHT22;59091;47.446;19.148;2022-08-11T17:37:52;25.67;35.86
71304;DHT22;59091;47.446;19.148;2022-08-11T17:40:20;25.65;36.07
71304;DHT22;59091;47.446;19.148;2022-08-11T17:42:49;25.55;36.45
71304;DHT22;59091;47.446;19.148;2022-08-11T17:45:34;25.27;37.25
71304;DHT22;59091;47.446;19.148;2022-08-11T17:48:28;25.20;37.59
71304;DHT22;59091;47.446;19.148;2022-08-11T17:50:58;25.14;37.79
71304;DHT22;59091;47.446;19.148;2022-08-11T17:53:26;25.22;37.76
71304;DHT22;59091;47.446;19.148;2022-08-11T17:56:12;24.99;38.17
71304;DHT22;59091;47.446;19.148;2022-08-11T17:58:58;24.62;38.66
71304;DHT22;59091;47.446;19.148;2022-08-11T18:01:45;24.47;38.87
71304;DHT22;59091;47.446;19.148;2022-08-11T18:04:12;24.48;38.90
71304;DHT22;59091;47.446;19.148;2022-08-11T18:06:40;24.36;38.79
71304;DHT22;59091;47.446;19.148;2022-08-11T18:09:14;24.31;39.03
71304;DHT22;59091;47.446;19.148;2022-08-11T18:12:00;24.42;38.78
71304;DHT22;59091;47.446;19.148;2022-08-11T18:14:50;24.18;39.04
71304;DHT22;59091;47.446;19.148;2022-08-11T18:17:35;23.93;39.42
71304;DHT22;59091;47.446;19.148;2022-08-11T18:20:19;24.10;39.35
71304;DHT22;59091;47.446;19.148;2022-08-11T18:23:07;23.91;39.43
71304;DHT22;59091;47.446;19.148;2022-08-11T18:25:53;24.00;39.43
71304;DHT22;59091;47.446;19.148;2022-08-11T18:28:44;23.81;39.41
71304;DHT22;59091;47.446;19.148;2022-08-11T18:31:32;23.91;39.24
71304;DHT22;59091;47.446;19.148;2022-08-11T18:34:20;23.85;39.34
71304;DHT22;59091;47.446;19.148;2022-08-11T18:37:12;23.81;39.39
71304;DHT22;59091;47.446;19.148;2022-08-11T18:40:06;23.87;39.20
71304;DHT22;59091;47.446;19.148;2022-08-11T18:42:52;23.91;39.03
71304;DHT22;59091;47.446;19.148;2022-08-11T18:45:39;23.94;38.94
71304;DHT22;59091;47.446;19.148;2022-08-11T18:48:26;23.83;39.23
71304;DHT22;59091;47.446;19.148;2022-08-11T18:51:11;23.97;38.81
71304;DHT22;59091;47.446;19.148;2022-08-11T18:53:59;24.01;38.72
71304;DHT22;59091;47.446;19.148;2022-08-11T18:56:45;24.00;38.66
71304;DHT22;59091;47.446;19.148;2022-08-11T18:59:34;24.05;38.54
71304;DHT22;59091;47.446;19.148;2022-08-11T19:02:20;24.05;38.64
71304;DHT22;59091;47.446;19.148;2022-08-11T19:05:06;24.13;38.44
71304;DHT22;59091;47.446;19.148;2022-08-11T19:07:53;24.18;38.59
71304;DHT22;59091;47.446;19.148;2022-08-11T19:10:38;24.11;38.78
71304;DHT22;59091;47.446;19.148;2022-08-11T19:13:23;24.22;38.89
71304;DHT22;59091;47.446;19.148;2022-08-11T19:16:08;24.08;38.84
71304;DHT22;59091;47.446;19.148;2022-08-11T19:18:53;24.03;39.00
71304;DHT22;59091;47.446;19.148;2022-08-11T19:21:39;24.08;39.09
71304;DHT22;59091;47.446;19.148;2022-08-11T19:24:24;23.80;39.01
71304;DHT22;59091;47.446;19.148;2022-08-11T19:27:09;23.78;39.23
71304;DHT22;59091;47.446;19.148;2022-08-11T19:29:55;23.71;39.65
71304;DHT22;59091;47.446;19.148;2022-08-11T19:32:39;23.56;39.68
71304;DHT22;59091;47.446;19.148;2022-08-11T19:35:24;23.57;39.62
71304;DHT22;59091;47.446;19.148;2022-08-11T19:38:09;23.53;39.79
71304;DHT22;59091;47.446;19.148;2022-08-11T19:40:54;23.34;40.17
71304;DHT22;59091;47.446;19.148;2022-08-11T19:43:41;23.32;40.23
71304;DHT22;59091;47.446;19.148;2022-08-11T19:46:27;23.18;40.57
71304;DHT22;59091;47.446;19.148;2022-08-11T19:49:12;23.29;40.55
71304;DHT22;59091;47.446;19.148;2022-08-11T19:51:57;23.27;40.65